Time;durP1;ratioP1;P1;durP2;ratioP2;P2;SDS_P1;SDS_P2;PMS_P1;PMS_P2;Temp;Humidity;BMP_temperature;BMP_pressure;BME280_temperature;BME280_humidity;BME280_pressure;Samples;Min_cycle;Max_cycle;Signal;HPM_P1;HPM_P2
2022/04/07 00:00:04;;;;;;;9.43;5.07;;;10.00;99.90;;;;;;5010695;28;20045;-81
2022/04/07 00:02:30;;;;;;;8.85;4.72;;;10.00;99.90;;;;;;5010852;28;20037;-81
2022/04/07 00:04:56;;;;;;;7.50;4.68;;;9.90;99.90;;;;;;5010590;28;20048;-80
2022/04/07 00:07:21;;;;;;;11.10;5.03;;;9.90;99.90;;;;;;5010989;28;20559;-81
2022/04/07 00:09:47;;;;;;;8.43;4.50;;;10.00;99.90;;;;;;5010389;28;20057;-81
2022/04/07 00:12:13;;;;;;;10.15;4.82;;;10.00;99.90;;;;;;5011215;28;20465;-80
2022/04/07 00:14:38;;;;;;;10.80;5.30;;;9.90;99.90;;;;;;4993287;28;20046;-81
2022/04/07 00:17:04;;;;;;;10.88;5.20;;;9.80;99.90;;;;;;5010767;28;20053;-81
2022/04/07 00:19:30;;;;;;;10.32;5.20;;;9.70;99.90;;;;;;5010594;28;20053;-81
2022/04/07 00:21:57;;;;;;;7.80;4.38;;;9.70;99.90;;;;;;5010356;28;20414;-81
2022/04/07 00:24:23;;;;;;;8.73;4.88;;;9.50;99.90;;;;;;5011954;28;20085;-81
2022/04/07 00:26:49;;;;;;;11.07;5.00;;;9.50;99.90;;;;;;5011842;28;20049;-81
2022/04/07 00:29:15;;;;;;;11.88;5.20;;;9.40;99.90;;;;;;5014639;28;20394;-81
2022/04/07 00:31:40;;;;;;;12.48;5.35;;;9.30;99.90;;;;;;5014136;28;20099;-82
2022/04/07 00:34:06;;;;;;;11.07;6.03;;;9.30;99.90;;;;;;5014550;28;20125;-82
2022/04/07 00:36:32;;;;;;;11.93;6.20;;;9.20;99.90;;;;;;4998237;28;20112;-81
2022/04/07 00:38:58;;;;;;;11.75;6.35;;;9.40;99.90;;;;;;5014956;28;20046;-81
2022/04/07 00:41:23;;;;;;;10.70;5.88;;;9.40;99.90;;;;;;5013925;28;20069;-81
2022/04/07 00:43:50;;;;;;;14.77;7.35;;;9.20;99.90;;;;;;5015228;28;20124;-81
2022/04/07 00:46:15;;;;;;;14.75;7.30;;;9.30;99.90;;;;;;5013830;28;20053;-81
2022/04/07 00:48:41;;;;;;;16.13;7.65;;;9.30;99.90;;;;;;5014895;28;20046;-81
2022/04/07 00:51:07;;;;;;;15.05;6.78;;;9.20;99.90;;;;;;5013461;28;20088;-81
2022/04/07 00:53:32;;;;;;;10.80;6.88;;;9.20;99.90;;;;;;5013917;28;20046;-81
2022/04/07 00:56:01;;;;;;;11.00;6.18;;;9.20;99.90;;;;;;5013347;28;20046;-81
2022/04/07 00:58:30;;;;;;;9.27;4.93;;;9.20;99.90;;;;;;5013712;28;20082;-83
2022/04/07 01:00:56;;;;;;;6.72;3.38;;;9.10;99.90;;;;;;4981612;28;20143;-80
2022/04/07 01:03:22;;;;;;;4.55;2.67;;;9.20;99.90;;;;;;5018831;28;20432;-81
2022/04/07 01:05:49;;;;;;;5.88;2.05;;;9.10;99.90;;;;;;5017147;28;20058;-81
2022/04/07 01:08:14;;;;;;;6.07;1.90;;;9.10;99.90;;;;;;4986362;28;20077;-81
2022/04/07 01:10:40;;;;;;;4.60;1.70;;;9.00;99.90;;;;;;5018762;28;20200;-81
2022/04/07 01:13:06;;;;;;;4.65;1.70;;;8.90;99.90;;;;;;5014719;28;20062;-81
2022/04/07 01:15:32;;;;;;;4.50;2.08;;;8.90;99.90;;;;;;5015708;28;20096;-81
2022/04/07 01:17:58;;;;;;;2.78;1.95;;;8.80;99.90;;;;;;5022920;28;20121;-81
2022/04/07 01:20:23;;;;;;;5.80;3.08;;;8.90;99.90;;;;;;5033773;28;20041;-81
2022/04/07 01:22:51;;;;;;;4.88;3.55;;;8.90;99.90;;;;;;5016069;28;20112;-81
2022/04/07 01:25:17;;;;;;;5.57;4.00;;;8.80;99.90;;;;;;4998690;28;20398;-81
2022/04/07 01:27:48;;;;;;;5.68;4.20;;;8.80;99.90;;;;;;5013702;28;20041;-81
2022/04/07 01:30:14;;;;;;;4.45;3.75;;;8.90;99.90;;;;;;5012834;28;20541;-82
2022/04/07 01:32:46;;;;;;;8.73;5.07;;;9.00;99.90;;;;;;4981287;28;20165;-82
2022/04/07 01:35:12;;;;;;;5.57;4.32;;;8.90;99.90;;;;;;4997958;28;20054;-81
2022/04/07 01:37:38;;;;;;;7.03;4.60;;;8.90;99.90;;;;;;4996040;28;20058;-80
2022/04/07 01:40:06;;;;;;;10.50;5.28;;;9.00;99.90;;;;;;4980183;28;20183;-82
2022/04/07 01:42:33;;;;;;;10.43;6.00;;;9.00;99.90;;;;;;5012736;28;20049;-81
2022/04/07 01:44:59;;;;;;;9.43;6.22;;;9.00;99.90;;;;;;4996691;28;20053;-81
2022/04/07 01:47:25;;;;;;;9.43;6.63;;;8.90;99.90;;;;;;5001080;28;20053;-81
2022/04/07 01:49:55;;;;;;;9.95;7.63;;;9.00;99.90;;;;;;5013063;28;20045;-82
2022/04/07 01:52:20;;;;;;;15.60;9.20;;;8.90;99.90;;;;;;4997250;28;20132;-81
2022/04/07 01:54:46;;;;;;;15.10;9.48;;;9.00;99.90;;;;;;5014180;28;20080;-81
2022/04/07 01:57:12;;;;;;;14.30;9.30;;;9.10;99.90;;;;;;4982015;28;20048;-82
2022/04/07 01:59:37;;;;;;;19.65;10.65;;;9.10;99.90;;;;;;4980299;28;20092;-81
2022/04/07 02:02:03;;;;;;;14.00;8.57;;;9.10;99.90;;;;;;4996486;28;20057;-81
2022/04/07 02:04:29;;;;;;;15.88;7.97;;;9.20;99.90;;;;;;5014115;28;20126;-81
2022/04/07 02:06:55;;;;;;;15.85;7.95;;;9.20;99.90;;;;;;5012488;28;20050;-81
2022/04/07 02:09:20;;;;;;;15.27;8.40;;;9.30;99.90;;;;;;5012638;28;20054;-82
2022/04/07 02:11:47;;;;;;;18.55;6.13;;;9.20;99.90;;;;;;5013531;28;20497;-82
2022/04/07 02:14:13;;;;;;;17.23;6.38;;;9.30;99.90;;;;;;4996176;28;20092;-82
2022/04/07 02:16:38;;;;;;;15.25;7.22;;;9.20;99.90;;;;;;5011928;28;20099;-82
2022/04/07 02:19:04;;;;;;;15.57;5.55;;;9.10;99.90;;;;;;5012501;28;20405;-82
2022/04/07 02:21:30;;;;;;;18.35;6.65;;;9.10;99.90;;;;;;5012784;28;20053;-82
2022/04/07 02:23:56;;;;;;;13.65;5.88;;;9.10;99.90;;;;;;5012002;28;20045;-81
2022/04/07 02:26:22;;;;;;;13.35;6.00;;;9.00;99.90;;;;;;5013135;28;20100;-82
2022/04/07 02:28:47;;;;;;;9.80;5.07;;;8.90;99.90;;;;;;5013517;28;20100;-82
2022/04/07 02:31:13;;;;;;;11.45;4.93;;;9.30;99.90;;;;;;4995754;28;20419;-81
2022/04/07 02:33:39;;;;;;;13.02;4.93;;;9.00;99.90;;;;;;5012496;28;20501;-81
2022/04/07 02:36:05;;;;;;;10.88;4.85;;;9.10;99.90;;;;;;5012035;28;20046;-81
2022/04/07 02:38:31;;;;;;;16.05;4.65;;;9.00;99.90;;;;;;5006430;28;20053;-81
2022/04/07 02:40:57;;;;;;;25.70;7.05;;;9.00;99.90;;;;;;5014425;28;20052;-81
2022/04/07 02:43:23;;;;;;;10.88;4.45;;;9.00;99.90;;;;;;5031104;28;20068;-81
2022/04/07 02:45:48;;;;;;;11.40;4.93;;;9.00;99.90;;;;;;5028944;28;20049;-81
2022/04/07 02:48:14;;;;;;;13.57;5.05;;;9.20;99.90;;;;;;5030441;28;20183;-81
2022/04/07 02:50:40;;;;;;;14.32;5.57;;;8.90;99.90;;;;;;5031307;28;20460;-81
2022/04/07 02:53:05;;;;;;;16.60;4.70;;;8.90;99.90;;;;;;5027813;28;20053;-81
2022/04/07 02:55:31;;;;;;;16.27;5.70;;;9.10;99.90;;;;;;5031680;28;20413;-81
2022/04/07 02:58:00;;;;;;;16.98;5.75;;;9.10;99.90;;;;;;5029973;28;20465;-82
2022/04/07 03:00:28;;;;;;;14.88;4.72;;;9.00;99.90;;;;;;5014623;28;20045;-81
2022/04/07 03:02:54;;;;;;;12.88;4.43;;;9.00;99.90;;;;;;5013801;28;20374;-81
2022/04/07 03:05:20;;;;;;;17.67;5.15;;;9.10;99.90;;;;;;5030497;28;20045;-81
2022/04/07 03:07:45;;;;;;;11.48;5.15;;;9.80;99.90;;;;;;5031301;28;20045;-81
2022/04/07 03:10:11;;;;;;;17.52;5.15;;;9.00;99.90;;;;;;5029212;28;20136;-81
2022/04/07 03:12:38;;;;;;;11.93;4.28;;;8.90;99.90;;;;;;5013946;28;20061;-81
2022/04/07 03:15:05;;;;;;;13.38;4.53;;;9.50;99.90;;;;;;5013684;28;20120;-81
2022/04/07 03:17:31;;;;;;;19.42;5.40;;;8.90;99.90;;;;;;5014023;28;20053;-80
2022/04/07 03:19:57;;;;;;;16.90;5.13;;;8.90;99.90;;;;;;5029779;28;20054;-81
2022/04/07 03:22:23;;;;;;;14.93;5.20;;;9.00;99.90;;;;;;5030241;28;20053;-81
2022/04/07 03:24:48;;;;;;;17.20;5.43;;;9.10;99.90;;;;;;5029767;28;20056;-81
2022/04/07 03:27:15;;;;;;;16.05;5.70;;;9.00;99.90;;;;;;5029699;28;20049;-81
2022/04/07 03:29:41;;;;;;;16.45;5.90;;;9.00;99.90;;;;;;5013722;28;20053;-82
2022/04/07 03:32:07;;;;;;;22.90;6.15;;;8.90;99.90;;;;;;5029046;28;20047;-82
2022/04/07 03:34:33;;;;;;;17.42;6.43;;;8.90;99.90;;;;;;5032394;28;20060;-82
2022/04/07 03:37:00;;;;;;;14.65;5.68;;;8.80;99.90;;;;;;5022236;28;20079;-81
2022/04/07 03:39:25;;;;;;;13.02;4.20;;;8.80;99.90;;;;;;5050700;28;20045;-81
2022/04/07 03:41:51;;;;;;;12.30;4.32;;;8.80;99.90;;;;;;5016078;28;20412;-81
2022/04/07 03:44:18;;;;;;;10.32;3.75;;;8.80;99.90;;;;;;5031816;28;20045;-82
2022/04/07 03:46:44;;;;;;;11.38;3.67;;;8.80;99.90;;;;;;5031285;28;20095;-81
2022/04/07 03:49:09;;;;;;;17.90;5.15;;;8.90;99.90;;;;;;5029711;28;20428;-81
2022/04/07 03:51:35;;;;;;;13.85;3.42;;;8.80;99.90;;;;;;5013266;28;20106;-81
2022/04/07 03:54:01;;;;;;;6.82;2.55;;;8.90;99.90;;;;;;5029371;28;20041;-81
2022/04/07 03:56:26;;;;;;;10.70;3.15;;;8.90;99.90;;;;;;5030823;28;20175;-81
2022/04/07 03:58:52;;;;;;;12.07;3.20;;;8.90;99.90;;;;;;5029893;28;20124;-81
2022/04/07 04:01:18;;;;;;;9.95;3.22;;;8.90;99.90;;;;;;5034819;28;20163;-81
2022/04/07 04:03:43;;;;;;;10.63;3.28;;;8.80;99.90;;;;;;5036627;28;20056;-81
2022/04/07 04:06:09;;;;;;;8.77;3.55;;;8.70;99.90;;;;;;5020054;28;20049;-81
2022/04/07 04:08:35;;;;;;;11.80;3.35;;;8.80;99.90;;;;;;5036800;28;20662;-81
2022/04/07 04:11:01;;;;;;;11.98;4.22;;;8.70;99.90;;;;;;5019957;28;20053;-81
2022/04/07 04:13:28;;;;;;;13.85;3.95;;;8.80;99.90;;;;;;5036548;28;20053;-81
2022/04/07 04:15:55;;;;;;;14.50;4.50;;;8.70;99.90;;;;;;5038141;28;20045;-80
2022/04/07 04:18:21;;;;;;;15.40;4.25;;;8.70;99.90;;;;;;5037880;28;20045;-81
2022/04/07 04:20:46;;;;;;;11.60;3.70;;;8.70;99.90;;;;;;5020882;28;20049;-81
2022/04/07 04:23:12;;;;;;;14.50;4.55;;;8.80;99.90;;;;;;5036817;28;20050;-81
2022/04/07 04:25:38;;;;;;;16.05;4.53;;;8.90;99.90;;;;;;5040236;28;20401;-80
2022/04/07 04:28:03;;;;;;;16.92;4.82;;;8.90;99.90;;;;;;5039001;28;20041;-80
2022/04/07 04:30:30;;;;;;;14.02;4.55;;;8.80;99.90;;;;;;5023465;28;20037;-80
2022/04/07 04:32:56;;;;;;;16.45;4.72;;;8.90;99.90;;;;;;5023004;28;20064;-80
2022/04/07 04:35:21;;;;;;;20.77;5.32;;;8.80;99.90;;;;;;5003755;28;20053;-81
2022/04/07 04:37:47;;;;;;;18.02;4.85;;;8.80;99.90;;;;;;5036982;28;20531;-81
2022/04/07 04:40:13;;;;;;;18.52;5.72;;;8.80;99.90;;;;;;5037803;28;20049;-80
2022/04/07 04:42:42;;;;;;;17.77;6.53;;;8.90;99.90;;;;;;5019684;28;20124;-80
2022/04/07 04:45:08;;;;;;;21.63;5.28;;;8.80;99.90;;;;;;5037346;28;20061;-81
2022/04/07 04:47:34;;;;;;;21.33;5.88;;;8.80;99.90;;;;;;5036358;28;20045;-80
2022/04/07 04:50:00;;;;;;;18.40;5.15;;;8.90;99.90;;;;;;5022325;28;20397;-80
2022/04/07 04:52:26;;;;;;;24.10;6.78;;;8.90;99.90;;;;;;5037029;28;20144;-81
2022/04/07 04:54:52;;;;;;;31.33;6.80;;;8.90;99.90;;;;;;5020246;28;20088;-80
2022/04/07 04:57:17;;;;;;;28.50;6.18;;;8.80;99.90;;;;;;5040152;28;20046;-81
2022/04/07 04:59:43;;;;;;;26.23;6.28;;;8.90;99.90;;;;;;5036398;28;20128;-81
2022/04/07 05:02:09;;;;;;;25.45;6.72;;;8.80;99.90;;;;;;5037022;28;20049;-81
2022/04/07 05:04:36;;;;;;;20.17;5.45;;;8.80;99.90;;;;;;5019657;28;20061;-81
2022/04/07 05:07:02;;;;;;;22.65;5.70;;;8.80;99.90;;;;;;5037161;28;20053;-81
2022/04/07 05:09:28;;;;;;;23.80;6.00;;;8.90;99.90;;;;;;5018611;28;20053;-81
2022/04/07 05:11:54;;;;;;;16.15;4.45;;;8.90;99.90;;;;;;5017424;28;20391;-81
2022/04/07 05:14:19;;;;;;;21.00;5.43;;;8.90;99.90;;;;;;5033937;28;20053;-81
2022/04/07 05:16:45;;;;;;;24.08;5.68;;;9.00;99.90;;;;;;5032713;28;20144;-81
2022/04/07 05:19:11;;;;;;;20.92;4.82;;;9.20;99.90;;;;;;5033263;28;20433;-82
2022/04/07 05:21:36;;;;;;;15.93;3.65;;;8.80;99.90;;;;;;5033059;28;20049;-81
2022/04/07 05:24:02;;;;;;;17.98;3.80;;;8.80;99.90;;;;;;5016033;28;20067;-81
2022/04/07 05:26:28;;;;;;;22.08;5.07;;;8.70;99.90;;;;;;5032403;28;20111;-82
2022/04/07 05:28:53;;;;;;;22.17;4.60;;;8.60;99.90;;;;;;5032429;28;20045;-82
2022/04/07 05:31:19;;;;;;;18.48;4.10;;;8.60;99.90;;;;;;5031785;28;20219;-81
2022/04/07 05:33:44;;;;;;;27.90;6.05;;;8.50;99.90;;;;;;5032933;28;20123;-82
2022/04/07 05:36:10;;;;;;;20.08;5.97;;;8.40;99.90;;;;;;5015657;28;20453;-82
2022/04/07 05:38:36;;;;;;;25.05;6.40;;;8.30;99.90;;;;;;4999396;28;20496;-83
2022/04/07 05:41:02;;;;;;;29.63;7.43;;;8.40;99.90;;;;;;5015861;28;20056;-82
2022/04/07 05:43:27;;;;;;;24.60;7.18;;;8.40;99.90;;;;;;5031973;28;20103;-83
2022/04/07 05:45:53;;;;;;;24.67;7.28;;;8.40;99.90;;;;;;5032767;28;20052;-82
2022/04/07 05:48:18;;;;;;;27.40;8.23;;;8.50;99.90;;;;;;5033485;28;20044;-82
2022/04/07 05:50:44;;;;;;;22.23;7.85;;;8.80;99.90;;;;;;5032385;28;20523;-82
2022/04/07 05:53:10;;;;;;;29.30;9.68;;;8.50;99.90;;;;;;5034607;28;20076;-82
2022/04/07 05:55:37;;;;;;;9.77;1.65;;;8.40;99.90;;;;;;5052077;28;20094;-82
2022/04/07 05:58:03;;;;;;;6.43;1.30;;;6.70;99.90;;;;;;5057377;28;20053;-82
2022/04/07 06:00:29;;;;;;;3.65;0.73;;;5.80;99.90;;;;;;5026591;28;20053;-83
2022/04/07 06:02:55;;;;;;;1.33;0.85;;;5.30;99.90;;;;;;5034388;28;20392;-82
2022/04/07 06:05:20;;;;;;;3.42;1.63;;;4.80;99.90;;;;;;5016535;28;20493;-83
2022/04/07 06:07:46;;;;;;;2.03;0.80;;;4.60;99.90;;;;;;5016216;28;20053;-83
2022/04/07 06:10:12;;;;;;;2.92;0.95;;;4.60;99.90;;;;;;5031631;28;20477;-83
2022/04/07 06:12:42;;;;;;;4.22;1.17;;;4.50;99.90;;;;;;5031904;28;20065;-83
2022/04/07 06:15:10;;;;;;;4.22;1.20;;;5.20;99.90;;;;;;5032287;28;20158;-83
2022/04/07 06:17:38;;;;;;;7.03;1.63;;;4.50;99.90;;;;;;5032054;28;20052;-83
2022/04/07 06:20:06;;;;;;;5.90;1.60;;;5.20;99.90;;;;;;5032249;28;20511;-84
2022/04/07 06:22:32;;;;;;;5.68;1.52;;;4.60;99.90;;;;;;5031303;28;20134;-84
2022/04/07 06:24:58;;;;;;;8.15;2.00;;;5.40;99.90;;;;;;5030803;28;20420;-84
2022/04/07 06:27:23;;;;;;;6.80;1.83;;;4.60;99.90;;;;;;5031479;28;20125;-84
2022/04/07 06:29:49;;;;;;;9.52;1.80;;;4.80;99.90;;;;;;5033373;28;20366;-83
2022/04/07 06:32:15;;;;;;;7.47;1.60;;;5.00;99.90;;;;;;5029791;28;20111;-84
2022/04/07 06:34:40;;;;;;;8.30;1.90;;;5.50;99.90;;;;;;5005507;28;20049;-84
2022/04/07 06:37:12;;;;;;;7.53;1.75;;;5.90;99.90;;;;;;5014074;28;20072;-83
2022/04/07 06:39:37;;;;;;;5.90;1.83;;;4.90;99.90;;;;;;4994494;28;20053;-84
2022/04/07 06:42:03;;;;;;;9.82;1.85;;;4.90;99.90;;;;;;5012013;28;20387;-84
2022/04/07 06:44:29;;;;;;;4.20;1.55;;;5.00;99.90;;;;;;5012338;28;20460;-84
2022/04/07 06:46:55;;;;;;;4.22;1.60;;;5.00;99.90;;;;;;5011337;28;20137;-83
2022/04/07 06:49:21;;;;;;;7.72;1.73;;;5.00;99.90;;;;;;5012233;28;20057;-83
2022/04/07 06:51:46;;;;;;;5.13;1.50;;;5.30;99.90;;;;;;5011265;28;20046;-84
2022/04/07 06:54:12;;;;;;;4.43;1.30;;;5.10;99.90;;;;;;5011420;28;20042;-84
2022/04/07 06:56:38;;;;;;;2.97;1.50;;;5.20;99.90;;;;;;5010997;28;20057;-84
2022/04/07 06:59:05;;;;;;;5.97;1.42;;;5.20;99.90;;;;;;4994839;28;20060;-84
2022/04/07 07:01:31;;;;;;;2.58;1.23;;;5.20;99.90;;;;;;5010788;28;20096;-84
2022/04/07 07:03:56;;;;;;;1.00;0.90;;;5.30;99.90;;;;;;5011253;28;20092;-83
2022/04/07 07:06:22;;;;;;;2.33;1.08;;;5.40;99.90;;;;;;5010966;28;20065;-84
2022/04/07 07:08:48;;;;;;;5.45;1.10;;;5.50;99.90;;;;;;4994581;28;20054;-84
2022/04/07 07:11:14;;;;;;;3.55;1.55;;;5.40;99.90;;;;;;5011542;28;20058;-84
2022/04/07 07:13:40;;;;;;;3.53;1.13;;;5.40;99.90;;;;;;5010398;28;20057;-84
2022/04/07 07:16:05;;;;;;;1.90;0.93;;;5.50;99.90;;;;;;5011086;28;20050;-84
2022/04/07 07:18:32;;;;;;;4.15;1.48;;;5.50;99.90;;;;;;4993984;28;20061;-84
2022/04/07 07:20:58;;;;;;;2.90;0.98;;;6.40;99.90;;;;;;5011454;28;20050;-84
2022/04/07 07:23:23;;;;;;;3.80;1.00;;;6.20;99.90;;;;;;4993900;28;20050;-83
2022/04/07 07:25:49;;;;;;;3.92;1.60;;;6.40;99.90;;;;;;5029761;28;20052;-85
2022/04/07 07:28:15;;;;;;;5.25;1.17;;;5.50;99.90;;;;;;5030244;28;20096;-85
2022/04/07 07:30:40;;;;;;;4.45;0.93;;;5.40;99.90;;;;;;5029541;28;20092;-84
2022/04/07 07:33:07;;;;;;;3.20;1.35;;;5.40;99.90;;;;;;5029499;28;20057;-83
2022/04/07 07:35:33;;;;;;;4.28;1.20;;;5.40;99.90;;;;;;5010426;28;20050;-85
2022/04/07 07:38:00;;;;;;;4.68;1.02;;;5.40;99.90;;;;;;5026892;28;20432;-84
2022/04/07 07:40:32;;;;;;;4.85;1.27;;;6.50;99.90;;;;;;5013967;28;20056;-84
2022/04/07 07:43:00;;;;;;;2.78;1.17;;;5.40;99.90;;;;;;5026289;28;20119;-84
2022/04/07 07:45:35;;;;;;;3.95;1.17;;;5.40;99.90;;;;;;5047913;28;20626;-83
2022/04/07 07:48:01;;;;;;;4.50;1.10;;;5.40;99.90;;;;;;5022517;28;20034;-84
2022/04/07 07:50:26;;;;;;;3.38;1.02;;;5.70;99.90;;;;;;5025832;28;20049;-83
2022/04/07 07:52:52;;;;;;;3.63;1.20;;;5.40;99.90;;;;;;5040516;28;20042;-82
2022/04/07 07:55:18;;;;;;;3.53;1.30;;;5.50;99.90;;;;;;5034350;28;20604;-83
2022/04/07 07:57:44;;;;;;;3.45;1.00;;;5.60;99.90;;;;;;5017847;28;20056;-84
2022/04/07 08:00:10;;;;;;;3.00;1.05;;;5.50;99.90;;;;;;5009317;28;20135;-84
2022/04/07 08:02:38;;;;;;;5.28;0.85;;;5.50;99.90;;;;;;5031735;28;20068;-84
2022/04/07 08:05:06;;;;;;;4.30;1.33;;;5.60;99.90;;;;;;5013209;28;20045;-83
2022/04/07 08:07:32;;;;;;;3.47;1.00;;;5.60;99.90;;;;;;5012349;28;20052;-83
2022/04/07 08:09:57;;;;;;;3.45;0.90;;;5.60;99.90;;;;;;5013788;28;20054;-83
2022/04/07 08:12:24;;;;;;;3.53;1.20;;;6.50;99.90;;;;;;5015531;28;20042;-83
2022/04/07 08:14:51;;;;;;;4.03;1.20;;;5.60;99.90;;;;;;5050897;28;20034;-83
2022/04/07 08:17:17;;;;;;;6.00;1.30;;;5.80;99.90;;;;;;5032672;28;20049;-84
2022/04/07 08:19:43;;;;;;;4.60;1.33;;;5.80;99.90;;;;;;5036211;28;20097;-83
2022/04/07 08:22:08;;;;;;;4.82;1.10;;;5.80;99.90;;;;;;5010119;28;20133;-82
2022/04/07 08:24:34;;;;;;;1.95;1.30;;;6.20;99.90;;;;;;5027021;28;20046;-83
2022/04/07 08:27:01;;;;;;;3.08;1.08;;;5.80;99.90;;;;;;5025818;28;20045;-83
2022/04/07 08:29:27;;;;;;;2.55;1.10;;;6.20;99.90;;;;;;5009985;28;20057;-84
2022/04/07 08:31:53;;;;;;;4.00;1.17;;;5.80;99.90;;;;;;4993429;28;20497;-83
2022/04/07 08:34:21;;;;;;;3.45;1.67;;;5.90;99.90;;;;;;4993142;28;20121;-84
2022/04/07 08:36:47;;;;;;;3.35;1.08;;;6.00;99.90;;;;;;5005089;28;20102;-83
2022/04/07 08:39:13;;;;;;;2.75;1.23;;;6.00;99.90;;;;;;5012280;28;20439;-82
2022/04/07 08:41:39;;;;;;;5.25;1.27;;;6.20;99.90;;;;;;5028071;28;20053;-83
2022/04/07 08:44:05;;;;;;;4.75;1.13;;;6.50;99.90;;;;;;5012646;28;20045;-83
2022/04/07 08:46:34;;;;;;;5.68;1.40;;;6.60;99.90;;;;;;4995478;28;20063;-83
2022/04/07 08:49:04;;;;;;;3.97;1.17;;;7.30;99.90;;;;;;5032005;28;20120;-83
2022/04/07 08:51:30;;;;;;;3.13;1.10;;;8.40;99.90;;;;;;5025962;28;20042;-83
2022/04/07 08:53:55;;;;;;;5.88;1.30;;;8.80;99.90;;;;;;5025750;28;20045;-83
2022/04/07 08:56:23;;;;;;;3.45;1.10;;;8.80;99.90;;;;;;5015747;28;20385;-82
2022/04/07 08:58:49;;;;;;;4.03;1.13;;;8.80;99.90;;;;;;5031351;28;20052;-84
2022/04/07 09:01:15;;;;;;;6.22;1.15;;;9.20;99.90;;;;;;5032271;28;20486;-84
2022/04/07 09:03:42;;;;;;;5.03;1.38;;;9.30;99.90;;;;;;5032952;28;20148;-85
2022/04/07 09:06:07;;;;;;;6.38;1.23;;;9.80;99.90;;;;;;5033404;28;20112;-83
2022/04/07 09:08:38;;;;;;;3.95;1.20;;;9.90;99.90;;;;;;5030089;28;20050;-82
2022/04/07 09:11:08;;;;;;;4.82;1.65;;;10.10;99.90;;;;;;5029095;28;20057;-83
2022/04/07 09:13:35;;;;;;;5.82;1.23;;;10.20;99.90;;;;;;5012549;28;20057;-83
2022/04/07 09:16:05;;;;;;;4.13;1.10;;;10.40;99.90;;;;;;5033053;28;20041;-83
2022/04/07 09:18:37;;;;;;;5.00;1.20;;;10.70;99.90;;;;;;5011002;28;20126;-82
2022/04/07 09:21:03;;;;;;;5.80;1.13;;;10.80;99.90;;;;;;5015253;28;20045;-82
2022/04/07 09:23:40;;;;;;;4.97;1.30;;;10.60;99.90;;;;;;5012197;28;20045;-82
2022/04/07 09:26:10;;;;;;;7.95;1.67;;;10.90;99.90;;;;;;5028236;28;20050;-83
2022/04/07 09:28:35;;;;;;;3.50;1.23;;;10.50;99.90;;;;;;5029682;28;20049;-82
2022/04/07 09:31:01;;;;;;;6.75;1.20;;;10.50;99.90;;;;;;5014695;28;20416;-83
2022/04/07 09:33:29;;;;;;;4.85;1.27;;;10.80;99.90;;;;;;4998893;28;20059;-83
2022/04/07 09:36:07;;;;;;;7.68;1.80;;;10.50;99.90;;;;;;4998564;28;20041;-83
2022/04/07 09:38:34;;;;;;;6.78;1.70;;;9.90;99.90;;;;;;5008637;28;20125;-83
2022/04/07 09:41:08;;;;;;;6.53;1.67;;;10.60;99.90;;;;;;5031343;28;20038;-86
2022/04/07 09:43:59;;;;;;;4.55;1.27;;;10.50;99.90;;;;;;4997029;28;20060;-84
2022/04/07 09:46:26;;;;;;;7.93;1.58;;;10.40;99.90;;;;;;4997866;28;20115;-82
2022/04/07 09:49:01;;;;;;;5.32;1.00;;;10.50;99.90;;;;;;4997255;28;20057;-82
2022/04/07 09:51:27;;;;;;;4.50;1.58;;;10.30;99.90;;;;;;5012403;28;20103;-82
2022/04/07 09:53:56;;;;;;;8.35;1.75;;;9.80;99.90;;;;;;5031563;28;20052;-82
2022/04/07 09:56:27;;;;;;;8.93;1.80;;;9.40;99.90;;;;;;5030465;28;20077;-82
2022/04/07 09:58:53;;;;;;;7.20;1.40;;;9.40;99.90;;;;;;5014568;28;20077;-81
2022/04/07 10:01:19;;;;;;;9.25;1.88;;;9.50;99.90;;;;;;5013094;28;20502;-82
2022/04/07 10:03:47;;;;;;;8.57;1.83;;;10.00;99.90;;;;;;5026312;28;20041;-81
2022/04/07 10:06:14;;;;;;;7.45;1.80;;;10.10;99.90;;;;;;5033754;28;20550;-81
2022/04/07 10:08:40;;;;;;;7.60;1.73;;;10.10;99.90;;;;;;5032788;28;20175;-81
2022/04/07 10:11:06;;;;;;;4.72;1.42;;;10.40;99.90;;;;;;5015791;28;20160;-81
2022/04/07 10:13:32;;;;;;;9.43;1.75;;;10.60;99.90;;;;;;5033467;28;20061;-81
2022/04/07 10:15:57;;;;;;;9.05;1.80;;;10.40;99.90;;;;;;5039135;28;20133;-81
2022/04/07 10:18:29;;;;;;;7.93;1.92;;;10.30;99.90;;;;;;5047629;28;20030;-81
2022/04/07 10:20:57;;;;;;;5.93;1.52;;;10.20;99.90;;;;;;5008780;28;20045;-81
2022/04/07 10:23:23;;;;;;;10.43;1.92;;;9.70;99.90;;;;;;5037461;28;20046;-82
2022/04/07 10:25:49;;;;;;;7.32;1.88;;;9.40;99.90;;;;;;5021178;28;20045;-82
2022/04/07 10:28:15;;;;;;;9.25;1.92;;;9.60;99.90;;;;;;5020840;28;20060;-83
2022/04/07 10:30:49;;;;;;;10.75;2.10;;;9.80;99.90;;;;;;5017371;28;20042;-83
2022/04/07 10:33:38;;;;;;;10.88;2.17;;;10.30;99.90;;;;;;5015322;28;20070;-82
2022/04/07 10:36:38;;;;;;;12.75;3.65;;;10.20;99.90;;;;;;5020760;28;20736;-82
2022/04/07 10:39:12;;;;;;;6.32;1.80;;;10.30;99.90;;;;;;5026638;28;20053;-83
2022/04/07 10:41:38;;;;;;;11.23;2.10;;;10.30;99.90;;;;;;5036672;28;20054;-84
2022/04/07 10:44:11;;;;;;;11.30;2.28;;;10.50;99.90;;;;;;5032437;28;20060;-83
2022/04/07 10:46:36;;;;;;;7.18;1.88;;;10.90;99.90;;;;;;5035705;28;20041;-84
2022/04/07 10:49:09;;;;;;;9.32;2.03;;;10.50;99.90;;;;;;5045701;28;20087;-83
2022/04/07 10:51:45;;;;;;;10.00;1.90;;;9.70;99.90;;;;;;5030604;28;20068;-84
2022/04/07 10:54:12;;;;;;;12.02;2.13;;;9.60;99.90;;;;;;5028842;28;20072;-84
2022/04/07 10:56:41;;;;;;;10.20;2.58;;;9.70;99.90;;;;;;5028347;28;20046;-85
2022/04/07 10:59:27;;;;;;;13.75;2.20;;;10.10;99.90;;;;;;5022012;28;20506;-84
2022/04/07 11:02:06;;;;;;;12.73;2.55;;;9.90;99.90;;;;;;5019291;28;20053;-84
2022/04/07 11:04:57;;;;;;;11.13;2.75;;;9.90;99.90;;;;;;5017999;28;20085;-85
2022/04/07 11:07:23;;;;;;;14.18;2.63;;;10.00;99.90;;;;;;5031058;28;20049;-83
2022/04/07 11:09:58;;;;;;;14.40;3.25;;;10.30;99.90;;;;;;5014498;28;20068;-83
2022/04/07 11:12:30;;;;;;;10.77;2.58;;;10.20;99.90;;;;;;5009304;28;20061;-82
2022/04/07 11:15:01;;;;;;;13.23;2.58;;;10.20;99.90;;;;;;5014981;28;20069;-82
2022/04/07 11:17:36;;;;;;;12.65;3.08;;;9.90;99.90;;;;;;5031843;28;20075;-81
2022/04/07 11:20:05;;;;;;;12.00;2.35;;;10.00;99.90;;;;;;5044239;28;20041;-81
2022/04/07 11:22:54;;;;;;;9.93;2.08;;;9.70;99.90;;;;;;5029254;28;20049;-82
2022/04/07 11:25:24;;;;;;;11.15;1.98;;;9.30;99.90;;;;;;5050128;28;20101;-84
2022/04/07 11:28:10;;;;;;;11.35;2.20;;;8.90;99.90;;;;;;5026335;28;20596;-82
2022/04/07 11:30:43;;;;;;;7.95;2.08;;;8.80;99.90;;;;;;5014188;28;20049;-83
2022/04/07 11:33:28;;;;;;;13.02;2.10;;;9.00;99.90;;;;;;5013057;28;20061;-82
2022/04/07 11:36:00;;;;;;;8.90;2.00;;;9.30;99.90;;;;;;5012182;28;20112;-84
2022/04/07 11:38:45;;;;;;;13.43;3.03;;;9.30;99.90;;;;;;5012433;28;20054;-82
2022/04/07 11:41:15;;;;;;;14.38;2.55;;;9.60;99.90;;;;;;5009675;28;20045;-82
2022/04/07 11:43:45;;;;;;;11.32;3.13;;;9.90;99.90;;;;;;5012541;28;20057;-83
2022/04/07 11:46:14;;;;;;;12.45;2.90;;;10.10;99.90;;;;;;5012048;28;20049;-84
2022/04/07 11:48:40;;;;;;;13.63;2.85;;;10.20;99.90;;;;;;5029659;28;20045;-83
2022/04/07 11:51:14;;;;;;;8.30;2.25;;;10.50;99.90;;;;;;5010450;28;20441;-82
2022/04/07 11:53:40;;;;;;;11.55;2.83;;;10.40;99.90;;;;;;5013953;28;20140;-83
2022/04/07 11:56:25;;;;;;;11.80;2.63;;;10.60;99.90;;;;;;5030663;28;20524;-83
2022/04/07 11:58:54;;;;;;;11.60;2.75;;;10.70;99.90;;;;;;5030471;28;20060;-83
2022/04/07 12:01:20;;;;;;;13.02;3.13;;;10.70;99.90;;;;;;4997116;28;20060;-83
2022/04/07 12:03:51;;;;;;;13.55;3.28;;;10.50;99.90;;;;;;5010091;28;20148;-83
2022/04/07 12:06:23;;;;;;;13.20;2.72;;;10.20;99.90;;;;;;5022930;28;20045;-83
2022/04/07 12:08:51;;;;;;;16.83;2.28;;;10.00;99.90;;;;;;5031485;28;20041;-83
2022/04/07 12:11:20;;;;;;;14.60;3.15;;;9.90;99.90;;;;;;5029659;28;20517;-83
2022/04/07 12:13:47;;;;;;;17.95;3.40;;;10.00;99.90;;;;;;5029931;28;20474;-84
2022/04/07 12:16:12;;;;;;;16.95;3.80;;;10.10;99.90;;;;;;4996088;28;20099;-81
2022/04/07 12:18:38;;;;;;;9.93;2.40;;;10.60;99.90;;;;;;5029246;28;20053;-81
2022/04/07 12:21:09;;;;;;;10.25;2.80;;;10.70;99.90;;;;;;5029442;28;20132;-82
2022/04/07 12:23:37;;;;;;;8.63;2.13;;;11.00;99.90;;;;;;5034613;28;20053;-82
2022/04/07 12:26:08;;;;;;;9.40;2.33;;;11.00;99.90;;;;;;5017298;28;20056;-82
2022/04/07 12:28:38;;;;;;;10.68;3.33;;;11.00;99.90;;;;;;5033216;28;20464;-83
2022/04/07 12:31:13;;;;;;;9.00;2.25;;;10.70;99.90;;;;;;5015023;28;20061;-83
2022/04/07 12:33:45;;;;;;;12.77;2.83;;;10.80;99.90;;;;;;5032615;28;20059;-83
2022/04/07 12:36:12;;;;;;;12.63;2.40;;;10.80;99.90;;;;;;5014054;28;20049;-82
2022/04/07 12:38:38;;;;;;;11.52;2.45;;;11.10;99.90;;;;;;5017167;28;20547;-82
2022/04/07 12:41:15;;;;;;;11.85;3.67;;;10.70;99.90;;;;;;5033051;28;20087;-82
2022/04/07 12:43:50;;;;;;;11.98;2.67;;;10.90;99.90;;;;;;5030142;28;20095;-82
2022/04/07 12:46:19;;;;;;;14.90;2.22;;;10.90;99.90;;;;;;5013523;28;20121;-82
2022/04/07 12:49:04;;;;;;;10.77;2.05;;;11.10;99.90;;;;;;5027654;28;20042;-82
2022/04/07 12:51:31;;;;;;;8.20;2.35;;;11.00;99.90;;;;;;5034993;28;20338;-82